createdAt,value
2023-04-18T00:01:21.499Z,8.29
2023-04-18T00:03:54.375Z,8.36
2023-04-18T00:06:29.880Z,8.22
2023-04-18T00:09:03.180Z,8.39
2023-04-18T00:11:36.004Z,8.33
2023-04-18T00:14:10.407Z,8.35
2023-04-18T00:16:43.300Z,8.11
2023-04-18T00:19:16.174Z,8.05
2023-04-18T00:21:53.060Z,7.89
2023-04-18T00:24:25.915Z,7.93
2023-04-18T00:26:58.865Z,8.04
2023-04-18T00:29:32.677Z,7.99
2023-04-18T00:32:06.082Z,7.90
2023-04-18T00:34:40.301Z,7.94
2023-04-18T00:37:14.453Z,7.94
2023-04-18T00:39:48.147Z,7.86
2023-04-18T00:42:21.538Z,7.70
2023-04-18T00:44:54.452Z,7.66
2023-04-18T00:47:27.317Z,7.60
2023-04-18T00:50:01.088Z,7.77
2023-04-18T00:52:35.855Z,7.72
2023-04-18T00:55:09.805Z,7.67
2023-04-18T00:57:43.259Z,7.81
2023-04-18T01:00:16.565Z,7.75
2023-04-18T01:02:53.275Z,7.62
2023-04-18T01:05:27.454Z,7.61
2023-04-18T01:08:01.882Z,7.65
2023-04-18T01:10:34.874Z,7.54
2023-04-18T01:13:12.154Z,7.68
2023-04-18T01:15:46.877Z,7.52
2023-04-18T01:18:20.813Z,7.45
2023-04-18T01:20:54.789Z,7.64
2023-04-18T01:23:29.508Z,7.58
2023-04-18T01:26:04.081Z,7.51
2023-04-18T01:28:38.051Z,7.47
2023-04-18T01:31:10.934Z,7.44
2023-04-18T01:33:43.819Z,7.36
2023-04-18T01:36:16.875Z,7.45
2023-04-18T01:38:49.716Z,7.37
2023-04-18T01:41:24.255Z,7.33
2023-04-18T01:43:57.259Z,7.50
2023-04-18T01:46:30.233Z,7.26
2023-04-18T01:49:03.322Z,7.51
2023-04-18T01:51:36.327Z,7.43
2023-04-18T01:54:09.382Z,7.36
2023-04-18T01:56:43.534Z,7.20
2023-04-18T01:59:16.445Z,7.06
2023-04-18T02:01:50.624Z,7.14
2023-04-18T02:04:23.666Z,7.16
2023-04-18T02:06:56.504Z,7.29
2023-04-18T02:09:29.894Z,7.06
2023-04-18T02:12:04.145Z,7.04
2023-04-18T02:14:37.377Z,6.95
2023-04-18T02:17:10.268Z,6.93
2023-04-18T02:19:43.024Z,6.85
2023-04-18T02:22:15.879Z,6.95
2023-04-18T02:24:48.723Z,6.89
2023-04-18T02:27:22.961Z,6.98
2023-04-18T02:29:55.753Z,7.00
2023-04-18T02:32:28.705Z,6.99
2023-04-18T02:35:01.724Z,7.07
2023-04-18T02:37:34.928Z,7.15
2023-04-18T02:40:09.258Z,6.95
2023-04-18T02:42:43.591Z,6.95
2023-04-18T02:45:20.346Z,6.92
2023-04-18T02:47:55.987Z,7.06
2023-04-18T02:50:29.995Z,6.76
2023-04-18T02:53:03.910Z,6.91
2023-04-18T02:55:48.764Z,7.13
2023-04-18T02:58:23.887Z,7.05
2023-04-18T03:01:27.308Z,7.20
2023-04-18T03:04:05.295Z,7.22
2023-04-18T03:06:42.764Z,7.24
2023-04-18T03:09:16.149Z,7.18
2023-04-18T03:11:53.520Z,7.31
2023-04-18T03:14:32.427Z,7.28
2023-04-18T03:17:05.824Z,7.08
2023-04-18T03:19:44.917Z,7.10
2023-04-18T03:22:20.010Z,7.01
2023-04-18T03:25:03.057Z,6.87
2023-04-18T03:27:56.267Z,6.95
2023-04-18T03:30:32.472Z,7.19
2023-04-18T03:33:06.643Z,7.06
2023-04-18T03:35:39.716Z,7.14
2023-04-18T03:38:13.232Z,7.20
2023-04-18T03:40:46.245Z,7.08
2023-04-18T03:43:27.241Z,7.14
2023-04-18T03:46:01.871Z,7.17
2023-04-18T03:48:37.075Z,7.30
2023-04-18T03:51:14.763Z,7.02
2023-04-18T03:53:47.775Z,7.30
2023-04-18T03:56:22.536Z,7.17
2023-04-18T03:58:58.611Z,7.22
2023-04-18T04:01:32.826Z,7.20
2023-04-18T04:04:06.306Z,7.18
2023-04-18T04:06:39.172Z,7.38
2023-04-18T04:09:12.019Z,7.24
2023-04-18T04:11:45.931Z,7.29
2023-04-18T04:14:20.150Z,7.37
2023-04-18T04:16:54.411Z,7.27
2023-04-18T04:19:28.315Z,7.46
2023-04-18T04:22:11.839Z,7.36
2023-04-18T04:24:46.725Z,7.37
2023-04-18T04:27:22.643Z,7.36
2023-04-18T04:29:56.604Z,7.36
2023-04-18T04:32:30.818Z,7.27
2023-04-18T04:35:04.358Z,7.33
2023-04-18T04:37:38.593Z,7.29
2023-04-18T04:40:24.127Z,7.29
2023-04-18T04:43:05.745Z,7.38
2023-04-18T04:45:43.460Z,7.47
2023-04-18T04:48:18.737Z,7.41
2023-04-18T04:50:56.858Z,7.49
2023-04-18T04:53:31.261Z,7.48
2023-04-18T04:56:07.077Z,7.25
2023-04-18T04:58:40.453Z,7.42
2023-04-18T05:01:18.013Z,7.49
2023-04-18T05:03:52.720Z,7.63
2023-04-18T05:06:26.419Z,7.52
2023-04-18T05:09:00.885Z,7.51
2023-04-18T05:11:33.736Z,7.46
2023-04-18T05:14:06.809Z,7.29
2023-04-18T05:16:39.711Z,7.50
2023-04-18T05:19:14.204Z,7.51
2023-04-18T05:21:47.009Z,7.61
2023-04-18T05:24:20.335Z,7.52
2023-04-18T05:26:53.219Z,7.37
2023-04-18T05:29:26.415Z,7.46
2023-04-18T05:31:59.440Z,7.56
2023-04-18T05:34:37.355Z,7.66
2023-04-18T05:37:11.761Z,7.61
2023-04-18T05:39:45.253Z,7.61
2023-04-18T05:42:18.068Z,7.65
2023-04-18T05:44:50.901Z,7.81
2023-04-18T05:47:26.730Z,7.68
2023-04-18T05:50:01.692Z,7.68
2023-04-18T05:52:34.602Z,7.86
2023-04-18T05:55:09.658Z,7.92
2023-04-18T05:57:43.351Z,7.67
2023-04-18T06:00:17.713Z,7.92
2023-04-18T06:02:50.894Z,7.76
2023-04-18T06:05:25.609Z,7.86
2023-04-18T06:07:58.694Z,8.07
2023-04-18T06:10:31.448Z,8.13
2023-04-18T06:13:04.279Z,7.92
2023-04-18T06:15:37.168Z,7.97
2023-04-18T06:18:10.003Z,8.03
2023-04-18T06:20:45.207Z,7.98
2023-04-18T06:23:18.112Z,8.07
2023-04-18T06:25:51.190Z,8.07
2023-04-18T06:28:24.169Z,7.88
2023-04-18T06:30:57.334Z,8.03
2023-04-18T06:33:30.896Z,7.86
2023-04-18T06:36:07.287Z,8.06
2023-04-18T06:38:40.144Z,8.13
2023-04-18T06:41:13.908Z,8.03
2023-04-18T06:43:59.801Z,8.25
2023-04-18T06:46:36.118Z,8.07
2023-04-18T06:49:08.976Z,8.07
2023-04-18T06:51:43.185Z,8.21
2023-04-18T06:54:16.221Z,8.28
2023-04-18T06:56:49.133Z,8.34
2023-04-18T06:59:23.315Z,8.16
2023-04-18T07:01:56.354Z,8.43
2023-04-18T07:04:29.405Z,8.24
2023-04-18T07:07:05.071Z,8.39
2023-04-18T07:09:38.147Z,8.28
2023-04-18T07:12:10.971Z,8.10
2023-04-18T07:14:43.768Z,8.25
2023-04-18T07:17:17.731Z,8.44
2023-04-18T07:19:50.769Z,8.36
2023-04-18T07:22:25.029Z,8.46
2023-04-18T07:24:57.832Z,8.43
2023-04-18T07:27:30.762Z,8.41
2023-04-18T07:30:04.215Z,8.33
2023-04-18T07:32:38.011Z,8.25
2023-04-18T07:35:11.410Z,8.23
2023-04-18T07:37:45.764Z,8.39
2023-04-18T07:40:19.115Z,8.63
2023-04-18T07:42:51.905Z,8.63
2023-04-18T07:45:25.000Z,8.76
2023-04-18T07:47:57.874Z,8.40
2023-04-18T07:50:30.775Z,8.80
2023-04-18T07:53:05.014Z,8.86
2023-04-18T07:55:37.832Z,8.69
2023-04-18T07:58:11.050Z,8.80
2023-04-18T08:00:44.743Z,9.07
2023-04-18T08:03:17.772Z,8.95
2023-04-18T08:05:51.626Z,9.14
2023-04-18T08:08:25.846Z,8.97
2023-04-18T08:10:58.645Z,8.92
2023-04-18T08:13:31.506Z,8.94
2023-04-18T08:16:04.440Z,8.86
2023-04-18T08:18:37.349Z,8.93
2023-04-18T08:21:10.285Z,8.83
2023-04-18T08:23:44.438Z,9.20
2023-04-18T08:26:17.364Z,9.27
2023-04-18T08:28:50.423Z,9.33
2023-04-18T08:31:23.418Z,9.41
2023-04-18T08:33:56.392Z,9.67
2023-04-18T08:36:29.186Z,9.65
2023-04-18T08:39:03.456Z,9.83
2023-04-18T08:41:38.048Z,9.95
2023-04-18T08:44:10.890Z,9.77
2023-04-18T08:46:44.006Z,9.60
2023-04-18T08:49:17.581Z,9.91
2023-04-18T08:51:52.866Z,9.71
2023-04-18T08:54:30.560Z,10.21
2023-04-18T08:57:07.376Z,9.97
2023-04-18T08:59:43.160Z,9.68
2023-04-18T09:02:17.802Z,9.60
2023-04-18T09:04:53.313Z,9.80
2023-04-18T09:07:29.594Z,9.97
2023-04-18T09:10:04.103Z,9.99
2023-04-18T09:12:49.957Z,9.89
2023-04-18T09:15:26.721Z,9.95
2023-04-18T09:18:02.680Z,9.96
2023-04-18T09:20:37.747Z,9.91
2023-04-18T09:23:14.423Z,10.07
2023-04-18T09:25:52.045Z,10.18
2023-04-18T09:28:27.879Z,10.55
2023-04-18T09:31:09.085Z,10.63
2023-04-18T09:33:46.908Z,11.06
2023-04-18T09:36:21.292Z,11.38
2023-04-18T09:38:57.043Z,11.28
2023-04-18T09:41:32.630Z,11.19
2023-04-18T09:44:14.955Z,10.69
2023-04-18T09:46:49.279Z,10.83
2023-04-18T09:49:23.661Z,11.00
2023-04-18T09:51:57.217Z,10.88
2023-04-18T09:54:33.768Z,10.67
2023-04-18T09:57:11.988Z,11.04
2023-04-18T09:59:50.192Z,11.59
2023-04-18T10:02:24.376Z,11.42
2023-04-18T10:05:00.678Z,11.31
2023-04-18T10:07:33.981Z,11.26
2023-04-18T10:10:08.281Z,11.08
2023-04-18T10:12:43.057Z,11.10
2023-04-18T10:15:16.862Z,11.09
2023-04-18T10:18:04.375Z,10.91
2023-04-18T10:20:41.985Z,11.02
2023-04-18T10:23:35.764Z,11.33
2023-04-18T10:26:09.353Z,11.60
2023-04-18T10:28:54.241Z,11.60
2023-04-18T10:31:28.881Z,11.64
2023-04-18T10:34:05.589Z,11.58
2023-04-18T10:37:05.124Z,11.72
2023-04-18T10:40:00.081Z,11.65
2023-04-18T10:43:00.288Z,11.67
2023-04-18T10:45:36.507Z,11.98
2023-04-18T10:48:26.017Z,11.70
2023-04-18T10:51:19.198Z,11.75
2023-04-18T10:53:55.057Z,12.03
2023-04-18T10:56:29.169Z,12.08
2023-04-18T10:59:04.165Z,12.15
2023-04-18T11:01:41.503Z,11.64
2023-04-18T11:04:15.546Z,11.99
2023-04-18T11:06:50.289Z,11.57
2023-04-18T11:09:23.393Z,11.82
2023-04-18T11:12:07.375Z,12.16
2023-04-18T11:14:41.315Z,12.61
2023-04-18T11:17:23.552Z,12.73
2023-04-18T11:20:06.917Z,12.86
2023-04-18T11:22:48.101Z,12.50
2023-04-18T11:25:25.070Z,12.79
2023-04-18T11:28:00.347Z,12.98
2023-04-18T11:30:38.221Z,12.63
2023-04-18T11:33:13.796Z,13.05
2023-04-18T11:35:47.367Z,12.87
2023-04-18T11:38:21.695Z,12.64
2023-04-18T11:40:56.119Z,12.40
2023-04-18T11:43:29.026Z,12.67
2023-04-18T11:46:02.069Z,13.22
2023-04-18T11:48:36.990Z,13.15
2023-04-18T11:51:33.963Z,13.23
2023-04-18T11:54:06.873Z,12.60
2023-04-18T11:56:49.996Z,13.00
2023-04-18T11:59:23.654Z,13.38
2023-04-18T12:02:14.867Z,12.99
2023-04-18T12:04:56.015Z,13.11
2023-04-18T12:07:37.311Z,13.45
2023-04-18T12:10:24.373Z,13.36
2023-04-18T12:12:59.634Z,14.06
2023-04-18T12:15:33.572Z,14.00
2023-04-18T12:18:08.333Z,13.02
2023-04-18T12:20:46.235Z,13.11
2023-04-18T12:23:33.712Z,13.34
2023-04-18T12:26:08.187Z,13.39
2023-04-18T12:28:45.196Z,13.53
2023-04-18T12:31:18.161Z,13.23
2023-04-18T12:33:51.310Z,13.33
2023-04-18T12:36:26.428Z,13.07
2023-04-18T12:39:02.739Z,12.85
2023-04-18T12:41:35.615Z,13.35
2023-04-18T12:44:12.077Z,13.52
2023-04-18T12:46:45.205Z,13.81
2023-04-18T12:49:18.081Z,14.27
2023-04-18T12:51:52.249Z,14.70
2023-04-18T12:54:25.600Z,14.13
2023-04-18T12:56:58.629Z,13.75
2023-04-18T12:59:31.490Z,14.28
2023-04-18T13:02:05.108Z,14.90
2023-04-18T13:04:38.265Z,14.93
2023-04-18T13:07:12.996Z,15.53
2023-04-18T13:09:47.148Z,15.24
2023-04-18T13:12:20.057Z,14.32
2023-04-18T13:14:52.957Z,13.92
2023-04-18T13:17:25.881Z,14.13
2023-04-18T13:19:58.903Z,14.78
2023-04-18T13:22:33.749Z,14.54
2023-04-18T13:25:10.345Z,14.77
2023-04-18T13:27:43.156Z,14.86
2023-04-18T13:30:16.074Z,15.14
2023-04-18T13:32:49.057Z,14.49
2023-04-18T13:35:22.067Z,15.14
2023-04-18T13:37:58.441Z,15.19
2023-04-18T13:40:33.365Z,15.02
2023-04-18T13:43:06.183Z,14.42
2023-04-18T13:45:38.964Z,15.30
2023-04-18T13:48:12.864Z,15.38
2023-04-18T13:50:46.668Z,15.23
2023-04-18T13:53:21.421Z,16.55
2023-04-18T13:55:54.366Z,15.86
2023-04-18T13:58:27.259Z,15.92
2023-04-18T14:01:03.130Z,15.45
2023-04-18T14:03:38.385Z,15.76
2023-04-18T14:06:12.277Z,15.63
2023-04-18T14:08:46.537Z,15.87
2023-04-18T14:11:19.643Z,16.36
2023-04-18T14:13:52.417Z,16.54
2023-04-18T14:16:25.510Z,15.64
2023-04-18T14:18:58.423Z,15.81
2023-04-18T14:21:31.545Z,15.34
2023-04-18T14:24:06.728Z,16.04
2023-04-18T14:26:39.565Z,15.11
2023-04-18T14:29:14.146Z,15.72
2023-04-18T14:31:47.393Z,16.05
2023-04-18T14:34:20.382Z,16.06
2023-04-18T14:36:53.184Z,16.21
2023-04-18T14:39:27.411Z,15.85
2023-04-18T14:42:01.322Z,15.86
2023-04-18T14:44:34.534Z,16.77
2023-04-18T14:47:07.489Z,16.55
2023-04-18T14:49:40.359Z,17.28
2023-04-18T14:52:14.094Z,16.52
2023-04-18T14:54:48.285Z,16.69
2023-04-18T14:57:21.101Z,16.91
2023-04-18T14:59:54.722Z,16.59
2023-04-18T15:02:27.793Z,15.78
2023-04-18T15:05:00.870Z,16.49
2023-04-18T15:07:33.831Z,17.36
2023-04-18T15:10:12.469Z,16.38
2023-04-18T15:12:46.672Z,17.18
2023-04-18T15:15:20.709Z,16.45
2023-04-18T15:17:53.785Z,16.72
2023-04-18T15:20:26.823Z,16.64
2023-04-18T15:22:59.796Z,16.76
2023-04-18T15:25:35.006Z,19.10
2023-04-18T15:28:08.090Z,18.83
2023-04-18T15:30:41.079Z,19.00
2023-04-18T15:33:14.289Z,18.04
2023-04-18T15:35:48.119Z,21.12
2023-04-18T15:38:21.398Z,21.09
2023-04-18T15:40:55.596Z,21.01
2023-04-18T15:43:28.617Z,20.54
2023-04-18T15:46:01.466Z,21.65
2023-04-18T15:48:36.227Z,20.99
2023-04-18T15:51:09.069Z,22.21
2023-04-18T15:53:41.917Z,20.74
2023-04-18T15:56:16.269Z,20.87
2023-04-18T15:58:49.088Z,19.57
2023-04-18T16:01:22.798Z,20.26
2023-04-18T16:03:55.711Z,22.29
2023-04-18T16:06:31.153Z,24.44
2023-04-18T16:09:06.519Z,24.31
2023-04-18T16:11:40.820Z,23.70
2023-04-18T16:14:13.862Z,23.36
2023-04-18T16:16:46.934Z,24.67
2023-04-18T16:19:20.396Z,22.84
2023-04-18T16:21:53.426Z,23.32
2023-04-18T16:24:26.415Z,21.39
2023-04-18T16:27:00.737Z,23.27
2023-04-18T16:29:33.373Z,23.94
2023-04-18T16:32:08.005Z,21.97
2023-04-18T16:34:40.820Z,25.13
2023-04-18T16:37:13.719Z,25.00
2023-04-18T16:39:46.714Z,28.04
2023-04-18T16:42:21.054Z,30.51
2023-04-18T16:44:56.851Z,27.86
2023-04-18T16:47:30.266Z,29.64
2023-04-18T16:50:03.173Z,26.32
2023-04-18T16:52:36.148Z,29.16
2023-04-18T16:55:09.801Z,27.65
2023-04-18T16:57:44.448Z,27.57
2023-04-18T17:00:18.297Z,26.71
2023-04-18T17:02:51.237Z,29.96
2023-04-18T17:05:25.912Z,27.41
2023-04-18T17:07:59.201Z,26.87
2023-04-18T17:10:32.454Z,28.12
2023-04-18T17:13:07.033Z,30.62
2023-04-18T17:15:40.005Z,28.28
2023-04-18T17:18:13.100Z,27.92
2023-04-18T17:20:46.030Z,25.65
2023-04-18T17:23:19.001Z,23.48
2023-04-18T17:25:51.882Z,26.52
2023-04-18T17:28:26.067Z,27.11
2023-04-18T17:30:58.865Z,27.86
2023-04-18T17:33:31.786Z,26.45
2023-04-18T17:36:08.352Z,26.93
2023-04-18T17:38:41.305Z,27.32
2023-04-18T17:41:14.139Z,25.64
2023-04-18T17:43:50.588Z,21.68
2023-04-18T17:46:23.497Z,19.78
2023-04-18T17:48:58.914Z,19.07
2023-04-18T17:51:32.140Z,18.51
2023-04-18T17:54:05.506Z,16.90
2023-04-18T17:56:38.371Z,17.22
2023-04-18T17:59:13.613Z,17.23
2023-04-18T18:01:47.144Z,17.17
2023-04-18T18:04:23.556Z,16.27
2023-04-18T18:06:58.817Z,16.73
2023-04-18T18:09:31.968Z,15.80
2023-04-18T18:12:05.888Z,16.22
2023-04-18T18:14:41.181Z,15.24
2023-04-18T18:17:14.033Z,15.32
2023-04-18T18:19:47.276Z,14.59
2023-04-18T18:22:21.344Z,15.07
2023-04-18T18:24:54.292Z,15.19
2023-04-18T18:27:27.212Z,15.19
2023-04-18T18:30:01.485Z,14.25
2023-04-18T18:32:34.520Z,14.57
2023-04-18T18:35:07.915Z,14.20
2023-04-18T18:37:40.983Z,14.30
2023-04-18T18:40:14.026Z,13.82
2023-04-18T18:42:49.262Z,14.39
2023-04-18T18:45:23.732Z,14.07
2023-04-18T18:47:56.715Z,13.85
2023-04-18T18:50:29.562Z,13.68
2023-04-18T18:53:02.642Z,13.47
2023-04-18T18:55:35.466Z,13.55
2023-04-18T18:58:08.317Z,13.55
2023-04-18T19:00:42.505Z,13.55
2023-04-18T19:03:16.808Z,13.54
2023-04-18T19:05:49.849Z,13.21
2023-04-18T19:08:22.825Z,13.33
2023-04-18T19:10:55.841Z,13.12
2023-04-18T19:13:28.963Z,13.07
2023-04-18T19:16:03.276Z,13.07
2023-04-18T19:18:36.680Z,12.86
2023-04-18T19:21:09.579Z,12.77
2023-04-18T19:23:43.031Z,12.99
2023-04-18T19:26:15.910Z,12.62
2023-04-18T19:28:48.817Z,12.63
2023-04-18T19:31:23.518Z,12.46
2023-04-18T19:33:56.375Z,12.34
2023-04-18T19:36:29.185Z,12.14
2023-04-18T19:39:01.974Z,12.12
2023-04-18T19:41:34.765Z,12.10
2023-04-18T19:44:07.539Z,11.83
2023-04-18T19:46:41.746Z,11.89
2023-04-18T19:49:14.870Z,11.45
2023-04-18T19:51:48.820Z,11.61
2023-04-18T19:54:22.087Z,11.65
2023-04-18T19:56:55.230Z,11.62
2023-04-18T19:59:28.202Z,11.38
2023-04-18T20:02:05.207Z,11.10
2023-04-18T20:04:40.500Z,11.26
2023-04-18T20:07:13.505Z,11.18
2023-04-18T20:09:46.354Z,11.29
2023-04-18T20:12:19.265Z,11.19
2023-04-18T20:14:52.449Z,11.29
2023-04-18T20:17:27.556Z,11.10
2023-04-18T20:20:00.663Z,11.08
2023-04-18T20:22:33.469Z,11.17
2023-04-18T20:25:06.893Z,11.26
2023-04-18T20:36:20.994Z,10.89
2023-04-18T20:38:53.630Z,11.02
2023-04-18T20:41:26.910Z,11.06
2023-04-18T20:43:59.805Z,11.02
2023-04-18T20:46:33.453Z,11.14
2023-04-18T20:49:07.730Z,11.01
2023-04-18T20:51:42.201Z,10.87
2023-04-18T20:54:15.379Z,10.85
2023-04-18T20:56:48.368Z,10.73
2023-04-18T20:59:21.333Z,10.92
2023-04-18T21:01:54.503Z,10.81
2023-04-18T21:04:27.909Z,10.92
2023-04-18T21:07:02.221Z,10.94
2023-04-18T21:09:36.527Z,11.00
2023-04-18T21:12:09.464Z,10.99
2023-04-18T21:14:42.549Z,11.20
2023-04-18T21:17:17.337Z,11.28
2023-04-18T21:19:50.736Z,11.15
2023-04-18T21:22:24.869Z,11.33
2023-04-18T21:24:57.898Z,11.20
2023-04-18T21:27:31.186Z,11.02
2023-04-18T21:30:05.236Z,11.07
2023-04-18T21:32:38.150Z,11.02
2023-04-18T21:35:11.460Z,10.97
2023-04-18T21:37:45.666Z,10.94
2023-04-18T21:40:19.151Z,11.03
2023-04-18T21:42:52.020Z,11.07
2023-04-18T21:45:25.805Z,10.82
2023-04-18T21:47:58.632Z,11.06
2023-04-18T21:50:31.443Z,11.14
2023-04-18T21:53:05.796Z,11.16
2023-04-18T21:55:38.623Z,10.91
2023-04-18T21:58:11.411Z,10.96
2023-04-18T22:00:44.244Z,10.86
2023-04-18T22:03:17.366Z,10.61
2023-04-18T22:05:52.143Z,10.76
2023-04-18T22:08:26.611Z,10.85
2023-04-18T22:11:00.188Z,10.82
2023-04-18T22:13:33.741Z,10.79
2023-04-18T22:16:08.091Z,10.97
2023-04-18T22:18:41.042Z,10.76
2023-04-18T22:21:13.831Z,10.83
2023-04-18T22:23:55.288Z,10.87
2023-04-18T22:26:28.121Z,10.80
2023-04-18T22:29:01.228Z,10.80
2023-04-18T22:31:34.122Z,10.90
2023-04-18T22:34:06.984Z,10.90
2023-04-18T22:36:39.831Z,10.85
2023-04-18T22:39:14.066Z,10.86
2023-04-18T22:41:46.860Z,10.89
2023-04-18T22:44:19.854Z,10.98
2023-04-18T22:46:54.437Z,10.95
2023-04-18T22:49:27.494Z,11.04
2023-04-18T22:52:01.318Z,11.10
2023-04-18T22:54:39.286Z,11.00
2023-04-18T22:57:12.135Z,11.11
2023-04-18T22:59:44.895Z,11.10
2023-04-18T23:02:17.792Z,11.11
2023-04-18T23:04:50.910Z,11.12
2023-04-18T23:07:23.815Z,11.20
2023-04-18T23:09:58.040Z,11.17
2023-04-18T23:12:30.835Z,11.14
2023-04-18T23:15:03.616Z,11.20
2023-04-18T23:17:37.485Z,11.15
2023-04-18T23:20:12.310Z,11.16
2023-04-18T23:22:46.478Z,11.22
2023-04-18T23:25:20.980Z,11.26
2023-04-18T23:27:53.791Z,11.22
2023-04-18T23:30:27.080Z,11.29
2023-04-18T23:32:59.935Z,11.31
2023-04-18T23:35:32.824Z,11.25
2023-04-18T23:38:05.801Z,11.12
2023-04-18T23:40:39.978Z,11.24
2023-04-18T23:43:13.031Z,11.24
2023-04-18T23:45:45.852Z,11.20
2023-04-18T23:48:18.758Z,11.26
2023-04-18T23:50:52.793Z,11.22
2023-04-18T23:53:25.766Z,11.01
2023-04-18T23:55:59.954Z,11.16
2023-04-18T23:58:32.877Z,11.09
